South Pomfret, VT

8:11 AM EDT on May 26, 2015 (GMT -0400)
Hartness State | | Change Station
CLOSE
Current Station
Airport
Location: Springfield,
Elevation: 574 ft
Nearby Weather Stations

Elev 574 ft 43.34 °N, 72.52 °W | Updated 17 minutes ago

Mostly Cloudy
Mostly Cloudy
67 °F
Feels Like 67 °F
N
5
Wind Variable Wind from South

Today
High -- | Low -- °F
--% Chance of Precip.
Yesterday
High -- | Low -- °F
Precip. -- in
5:15 AM 8:19 PM
First Quarter, 57% visible
Pressure 30.11 in
Visibility 10.0 miles
Clouds Few 12000 ft
Dew Point 58 °F
Humidity 73%
Rainfall 0.00 in
Snow Depth Not available.
UV 2 out of 12
Pollen 6.90 out of 12
Air Quality Not available.
Flu Activity Local Activity
METAR KVSF 261154Z AUTO 18004KT 10SM FEW120 19/14 A3011 RMK AO2 SLP194 T01940144 10200 20150 51010 TSNO

More Conditions Fewer Conditions

Pressure 30.11 in
Visibility 10.0 miles
Clouds Few 12000 ft
Dew Point 58 °F
Humidity 73%
Rainfall 0.00 in
Snow Depth Not available.
UV 2 out of 12
Pollen 6.90 out of 12
Air Quality Not available.
Flu Activity Local Activity
METAR KVSF 261154Z AUTO 18004KT 10SM FEW120 19/14 A3011 RMK AO2 SLP194 T01940144 10200 20150 51010 TSNO

More Conditions Fewer Conditions

10-Day Weather Forecast

Almanac

Astronomy

May. 26, 2015 Rise Set
Actual Time
Civil Twilight
Nautical Twilight
Astronomical Twilight
Moon
Length of Visible Light
Length of Day
Tomorrow will be .
, % of the Moon is Illuminated

Today's Extremes

State Highs State Lows

Community

WunderPhotos

Upload Photos

1,824,324 photos uploaded!

WunderBlogs® & News

Nearby

Air Quality

  Air Quality AQ Index Pollutant
Not available.

Snow Depth

Station Depth Elevation

Earthquake Activity

City Distance Mag. Time & Date
Minimum magnitude displayed is 2.5.

Coastal Water Temperatures

Place Temperature

Stations

Nearby Weather Stations

Station Location Temp. Windchill Dew Point Humidity Wind Precip. Elev Updated Type